sensor_id;sensor_type;location;lat;lon;timestamp;P1;durP1;ratioP1;P2;durP2;ratioP2
47760;SDS011;33524;55.434;38.520;2023-11-22T00:00:00;6.80;;;4.40;;
47760;SDS011;33524;55.434;38.520;2023-11-22T00:02:37;6.25;;;4.18;;
47760;SDS011;33524;55.434;38.520;2023-11-22T00:05:06;6.70;;;4.70;;
47760;SDS011;33524;55.434;38.520;2023-11-22T00:07:34;6.55;;;4.78;;
47760;SDS011;33524;55.434;38.520;2023-11-22T00:10:04;7.00;;;5.20;;
47760;SDS011;33524;55.434;38.520;2023-11-22T00:12:36;7.57;;;5.80;;
47760;SDS011;33524;55.434;38.520;2023-11-22T00:15:06;5.75;;;4.62;;
47760;SDS011;33524;55.434;38.520;2023-11-22T00:17:35;6.53;;;4.35;;
47760;SDS011;33524;55.434;38.520;2023-11-22T00:20:06;8.02;;;5.30;;
47760;SDS011;33524;55.434;38.520;2023-11-22T00:22:35;7.07;;;4.35;;
47760;SDS011;33524;55.434;38.520;2023-11-22T00:25:04;6.10;;;4.68;;
47760;SDS011;33524;55.434;38.520;2023-11-22T00:27:35;7.82;;;4.60;;
47760;SDS011;33524;55.434;38.520;2023-11-22T00:30:05;6.35;;;3.83;;
47760;SDS011;33524;55.434;38.520;2023-11-22T00:32:33;7.55;;;5.05;;
47760;SDS011;33524;55.434;38.520;2023-11-22T00:35:03;7.15;;;5.10;;
47760;SDS011;33524;55.434;38.520;2023-11-22T00:37:31;8.18;;;5.53;;
47760;SDS011;33524;55.434;38.520;2023-11-22T00:39:59;5.75;;;4.07;;
47760;SDS011;33524;55.434;38.520;2023-11-22T00:42:29;6.62;;;4.07;;
47760;SDS011;33524;55.434;38.520;2023-11-22T00:44:57;6.30;;;4.45;;
47760;SDS011;33524;55.434;38.520;2023-11-22T00:47:25;7.37;;;5.45;;
47760;SDS011;33524;55.434;38.520;2023-11-22T00:49:54;8.27;;;3.97;;
47760;SDS011;33524;55.434;38.520;2023-11-22T00:52:24;7.30;;;4.47;;
47760;SDS011;33524;55.434;38.520;2023-11-22T00:54:55;6.12;;;3.83;;
47760;SDS011;33524;55.434;38.520;2023-11-22T00:57:24;6.35;;;3.47;;
47760;SDS011;33524;55.434;38.520;2023-11-22T00:59:54;4.97;;;3.72;;
47760;SDS011;33524;55.434;38.520;2023-11-22T01:02:22;7.03;;;4.62;;
47760;SDS011;33524;55.434;38.520;2023-11-22T01:04:50;6.93;;;3.70;;
47760;SDS011;33524;55.434;38.520;2023-11-22T01:07:18;4.03;;;2.95;;
47760;SDS011;33524;55.434;38.520;2023-11-22T01:09:46;5.62;;;3.92;;
47760;SDS011;33524;55.434;38.520;2023-11-22T01:12:15;8.45;;;5.05;;
47760;SDS011;33524;55.434;38.520;2023-11-22T01:14:43;5.00;;;4.18;;
47760;SDS011;33524;55.434;38.520;2023-11-22T01:17:11;8.68;;;4.45;;
47760;SDS011;33524;55.434;38.520;2023-11-22T01:19:40;7.43;;;6.03;;
47760;SDS011;33524;55.434;38.520;2023-11-22T01:22:11;5.15;;;3.53;;
47760;SDS011;33524;55.434;38.520;2023-11-22T01:24:39;5.32;;;3.70;;
47760;SDS011;33524;55.434;38.520;2023-11-22T01:27:07;4.97;;;4.05;;
47760;SDS011;33524;55.434;38.520;2023-11-22T01:29:38;6.60;;;4.75;;
47760;SDS011;33524;55.434;38.520;2023-11-22T01:32:10;8.65;;;4.82;;
47760;SDS011;33524;55.434;38.520;2023-11-22T01:34:38;6.55;;;3.40;;
47760;SDS011;33524;55.434;38.520;2023-11-22T01:37:06;5.55;;;3.75;;
47760;SDS011;33524;55.434;38.520;2023-11-22T01:39:39;4.80;;;3.17;;
47760;SDS011;33524;55.434;38.520;2023-11-22T01:42:10;4.47;;;3.45;;
47760;SDS011;33524;55.434;38.520;2023-11-22T01:44:42;7.25;;;4.53;;
47760;SDS011;33524;55.434;38.520;2023-11-22T01:47:10;8.75;;;4.87;;
47760;SDS011;33524;55.434;38.520;2023-11-22T01:49:41;5.35;;;3.37;;
47760;SDS011;33524;55.434;38.520;2023-11-22T01:52:09;7.70;;;4.25;;
47760;SDS011;33524;55.434;38.520;2023-11-22T01:54:38;5.35;;;3.50;;
47760;SDS011;33524;55.434;38.520;2023-11-22T01:57:06;3.87;;;2.95;;
47760;SDS011;33524;55.434;38.520;2023-11-22T01:59:36;5.78;;;3.35;;
47760;SDS011;33524;55.434;38.520;2023-11-22T02:02:05;9.55;;;4.25;;
47760;SDS011;33524;55.434;38.520;2023-11-22T02:04:34;7.32;;;4.50;;
47760;SDS011;33524;55.434;38.520;2023-11-22T02:07:06;6.07;;;4.00;;
47760;SDS011;33524;55.434;38.520;2023-11-22T02:09:35;6.87;;;4.10;;
47760;SDS011;33524;55.434;38.520;2023-11-22T02:12:03;4.93;;;4.28;;
47760;SDS011;33524;55.434;38.520;2023-11-22T02:14:32;5.00;;;3.40;;
47760;SDS011;33524;55.434;38.520;2023-11-22T02:17:00;5.12;;;3.45;;
47760;SDS011;33524;55.434;38.520;2023-11-22T02:19:29;7.47;;;5.53;;
47760;SDS011;33524;55.434;38.520;2023-11-22T02:21:57;3.62;;;2.62;;
47760;SDS011;33524;55.434;38.520;2023-11-22T02:24:26;5.20;;;4.00;;
47760;SDS011;33524;55.434;38.520;2023-11-22T02:26:54;6.03;;;3.35;;
47760;SDS011;33524;55.434;38.520;2023-11-22T02:29:23;6.75;;;5.10;;
47760;SDS011;33524;55.434;38.520;2023-11-22T02:31:51;6.68;;;3.95;;
47760;SDS011;33524;55.434;38.520;2023-11-22T02:34:19;5.62;;;3.60;;
47760;SDS011;33524;55.434;38.520;2023-11-22T02:36:47;5.28;;;4.00;;
47760;SDS011;33524;55.434;38.520;2023-11-22T02:39:35;6.65;;;3.60;;
47760;SDS011;33524;55.434;38.520;2023-11-22T02:42:24;5.37;;;3.50;;
47760;SDS011;33524;55.434;38.520;2023-11-22T02:44:53;4.68;;;3.33;;
47760;SDS011;33524;55.434;38.520;2023-11-22T02:47:21;4.55;;;3.33;;
47760;SDS011;33524;55.434;38.520;2023-11-22T02:49:49;4.95;;;3.65;;
47760;SDS011;33524;55.434;38.520;2023-11-22T02:52:17;6.12;;;4.15;;
47760;SDS011;33524;55.434;38.520;2023-11-22T02:54:45;6.80;;;4.75;;
47760;SDS011;33524;55.434;38.520;2023-11-22T02:57:13;5.18;;;3.47;;
47760;SDS011;33524;55.434;38.520;2023-11-22T02:59:44;5.60;;;3.95;;
47760;SDS011;33524;55.434;38.520;2023-11-22T03:02:15;5.95;;;3.97;;
47760;SDS011;33524;55.434;38.520;2023-11-22T03:04:46;4.10;;;3.37;;
47760;SDS011;33524;55.434;38.520;2023-11-22T03:07:14;10.25;;;5.03;;
47760;SDS011;33524;55.434;38.520;2023-11-22T03:09:43;6.97;;;4.80;;
47760;SDS011;33524;55.434;38.520;2023-11-22T03:12:13;7.68;;;5.37;;
47760;SDS011;33524;55.434;38.520;2023-11-22T03:14:42;8.02;;;5.45;;
47760;SDS011;33524;55.434;38.520;2023-11-22T03:17:11;5.78;;;4.15;;
47760;SDS011;33524;55.434;38.520;2023-11-22T03:19:41;5.68;;;4.10;;
47760;SDS011;33524;55.434;38.520;2023-11-22T03:22:09;6.95;;;4.93;;
47760;SDS011;33524;55.434;38.520;2023-11-22T03:24:37;9.07;;;5.57;;
47760;SDS011;33524;55.434;38.520;2023-11-22T03:27:06;5.50;;;3.60;;
47760;SDS011;33524;55.434;38.520;2023-11-22T03:29:34;6.85;;;3.92;;
47760;SDS011;33524;55.434;38.520;2023-11-22T03:32:05;6.72;;;4.40;;
47760;SDS011;33524;55.434;38.520;2023-11-22T03:34:36;7.82;;;5.10;;
47760;SDS011;33524;55.434;38.520;2023-11-22T03:37:04;6.87;;;5.45;;
47760;SDS011;33524;55.434;38.520;2023-11-22T03:39:33;6.10;;;4.45;;
47760;SDS011;33524;55.434;38.520;2023-11-22T03:42:01;6.62;;;4.20;;
47760;SDS011;33524;55.434;38.520;2023-11-22T03:44:29;9.68;;;6.12;;
47760;SDS011;33524;55.434;38.520;2023-11-22T03:47:00;7.07;;;5.05;;
47760;SDS011;33524;55.434;38.520;2023-11-22T03:49:29;6.97;;;4.87;;
47760;SDS011;33524;55.434;38.520;2023-11-22T03:51:59;6.82;;;4.90;;
47760;SDS011;33524;55.434;38.520;2023-11-22T03:54:31;5.87;;;3.53;;
47760;SDS011;33524;55.434;38.520;2023-11-22T03:57:00;5.45;;;3.53;;
47760;SDS011;33524;55.434;38.520;2023-11-22T03:59:31;5.25;;;3.85;;
47760;SDS011;33524;55.434;38.520;2023-11-22T04:02:02;7.97;;;4.35;;
47760;SDS011;33524;55.434;38.520;2023-11-22T04:04:30;5.55;;;4.10;;
47760;SDS011;33524;55.434;38.520;2023-11-22T04:06:58;6.12;;;4.12;;
47760;SDS011;33524;55.434;38.520;2023-11-22T04:09:26;7.22;;;4.40;;
47760;SDS011;33524;55.434;38.520;2023-11-22T04:11:54;9.63;;;6.40;;
47760;SDS011;33524;55.434;38.520;2023-11-22T04:14:23;10.00;;;5.28;;
47760;SDS011;33524;55.434;38.520;2023-11-22T04:16:51;9.25;;;5.35;;
47760;SDS011;33524;55.434;38.520;2023-11-22T04:19:20;9.05;;;4.62;;
47760;SDS011;33524;55.434;38.520;2023-11-22T04:21:48;9.70;;;5.62;;
47760;SDS011;33524;55.434;38.520;2023-11-22T04:24:16;10.38;;;5.97;;
47760;SDS011;33524;55.434;38.520;2023-11-22T04:26:45;9.20;;;5.37;;
47760;SDS011;33524;55.434;38.520;2023-11-22T04:29:15;7.22;;;4.97;;
47760;SDS011;33524;55.434;38.520;2023-11-22T04:31:44;13.20;;;7.62;;
47760;SDS011;33524;55.434;38.520;2023-11-22T04:34:13;11.93;;;7.25;;
47760;SDS011;33524;55.434;38.520;2023-11-22T04:36:41;13.02;;;8.15;;
47760;SDS011;33524;55.434;38.520;2023-11-22T04:39:09;12.18;;;7.95;;
47760;SDS011;33524;55.434;38.520;2023-11-22T04:41:38;11.80;;;6.47;;
47760;SDS011;33524;55.434;38.520;2023-11-22T04:44:07;9.00;;;5.07;;
47760;SDS011;33524;55.434;38.520;2023-11-22T04:49:11;8.57;;;6.03;;
47760;SDS011;33524;55.434;38.520;2023-11-22T04:51:42;8.40;;;4.62;;
47760;SDS011;33524;55.434;38.520;2023-11-22T04:54:15;10.63;;;5.70;;
47760;SDS011;33524;55.434;38.520;2023-11-22T04:56:43;7.87;;;4.78;;
47760;SDS011;33524;55.434;38.520;2023-11-22T04:59:12;4.93;;;4.00;;
47760;SDS011;33524;55.434;38.520;2023-11-22T05:01:41;7.00;;;4.43;;
47760;SDS011;33524;55.434;38.520;2023-11-22T05:04:10;5.55;;;4.12;;
47760;SDS011;33524;55.434;38.520;2023-11-22T05:06:40;5.15;;;3.53;;
47760;SDS011;33524;55.434;38.520;2023-11-22T05:09:12;4.62;;;3.42;;
47760;SDS011;33524;55.434;38.520;2023-11-22T05:11:42;5.60;;;4.25;;
47760;SDS011;33524;55.434;38.520;2023-11-22T05:14:12;7.22;;;4.15;;
47760;SDS011;33524;55.434;38.520;2023-11-22T05:16:41;4.87;;;3.33;;
47760;SDS011;33524;55.434;38.520;2023-11-22T05:19:15;4.70;;;3.90;;
47760;SDS011;33524;55.434;38.520;2023-11-22T05:21:43;4.77;;;3.20;;
47760;SDS011;33524;55.434;38.520;2023-11-22T05:24:15;5.68;;;3.83;;
47760;SDS011;33524;55.434;38.520;2023-11-22T05:26:45;3.95;;;3.00;;
47760;SDS011;33524;55.434;38.520;2023-11-22T05:29:16;4.60;;;3.20;;
47760;SDS011;33524;55.434;38.520;2023-11-22T05:31:47;3.75;;;2.97;;
47760;SDS011;33524;55.434;38.520;2023-11-22T05:34:19;5.68;;;3.37;;
47760;SDS011;33524;55.434;38.520;2023-11-22T05:36:49;4.53;;;3.67;;
47760;SDS011;33524;55.434;38.520;2023-11-22T05:39:20;3.42;;;3.12;;
47760;SDS011;33524;55.434;38.520;2023-11-22T05:41:53;6.43;;;3.87;;
47760;SDS011;33524;55.434;38.520;2023-11-22T05:44:23;4.53;;;3.03;;
47760;SDS011;33524;55.434;38.520;2023-11-22T05:46:53;3.12;;;2.83;;
47760;SDS011;33524;55.434;38.520;2023-11-22T05:49:22;3.20;;;2.15;;
47760;SDS011;33524;55.434;38.520;2023-11-22T05:51:55;4.62;;;3.55;;
47760;SDS011;33524;55.434;38.520;2023-11-22T05:54:28;2.87;;;2.58;;
47760;SDS011;33524;55.434;38.520;2023-11-22T05:56:58;3.47;;;2.72;;
47760;SDS011;33524;55.434;38.520;2023-11-22T05:59:32;3.47;;;2.45;;
47760;SDS011;33524;55.434;38.520;2023-11-22T06:02:04;2.83;;;2.50;;
47760;SDS011;33524;55.434;38.520;2023-11-22T06:04:41;4.10;;;2.62;;
47760;SDS011;33524;55.434;38.520;2023-11-22T06:07:18;3.10;;;2.33;;
47760;SDS011;33524;55.434;38.520;2023-11-22T06:09:52;3.33;;;2.72;;
47760;SDS011;33524;55.434;38.520;2023-11-22T06:12:41;3.47;;;2.10;;
47760;SDS011;33524;55.434;38.520;2023-11-22T06:15:18;3.75;;;2.85;;
47760;SDS011;33524;55.434;38.520;2023-11-22T06:17:52;3.72;;;3.08;;
47760;SDS011;33524;55.434;38.520;2023-11-22T06:20:25;9.10;;;3.03;;
47760;SDS011;33524;55.434;38.520;2023-11-22T06:22:59;2.53;;;2.00;;
47760;SDS011;33524;55.434;38.520;2023-11-22T06:25:32;3.95;;;2.92;;
47760;SDS011;33524;55.434;38.520;2023-11-22T06:28:12;4.68;;;2.53;;
47760;SDS011;33524;55.434;38.520;2023-11-22T06:30:47;4.07;;;2.92;;
47760;SDS011;33524;55.434;38.520;2023-11-22T06:33:22;2.25;;;1.90;;
47760;SDS011;33524;55.434;38.520;2023-11-22T06:35:55;3.53;;;2.90;;
47760;SDS011;33524;55.434;38.520;2023-11-22T06:38:29;4.18;;;2.60;;
47760;SDS011;33524;55.434;38.520;2023-11-22T06:41:04;4.30;;;3.10;;
47760;SDS011;33524;55.434;38.520;2023-11-22T06:43:35;3.60;;;3.03;;
47760;SDS011;33524;55.434;38.520;2023-11-22T06:46:09;3.85;;;2.50;;
47760;SDS011;33524;55.434;38.520;2023-11-22T06:48:41;3.80;;;2.53;;
47760;SDS011;33524;55.434;38.520;2023-11-22T06:51:24;5.43;;;3.17;;
47760;SDS011;33524;55.434;38.520;2023-11-22T06:54:03;4.22;;;2.53;;
47760;SDS011;33524;55.434;38.520;2023-11-22T06:56:41;3.58;;;2.70;;
47760;SDS011;33524;55.434;38.520;2023-11-22T06:59:17;4.60;;;3.22;;
47760;SDS011;33524;55.434;38.520;2023-11-22T07:01:49;4.20;;;2.55;;
47760;SDS011;33524;55.434;38.520;2023-11-22T07:04:39;3.55;;;2.28;;
47760;SDS011;33524;55.434;38.520;2023-11-22T07:07:18;3.62;;;2.78;;
47760;SDS011;33524;55.434;38.520;2023-11-22T07:09:52;4.10;;;2.53;;
47760;SDS011;33524;55.434;38.520;2023-11-22T07:12:34;3.33;;;2.10;;
47760;SDS011;33524;55.434;38.520;2023-11-22T07:15:07;4.28;;;2.72;;
47760;SDS011;33524;55.434;38.520;2023-11-22T07:17:40;3.55;;;2.12;;
47760;SDS011;33524;55.434;38.520;2023-11-22T07:20:15;2.87;;;2.37;;
47760;SDS011;33524;55.434;38.520;2023-11-22T07:22:54;5.20;;;3.55;;
47760;SDS011;33524;55.434;38.520;2023-11-22T07:25:40;2.85;;;1.92;;
47760;SDS011;33524;55.434;38.520;2023-11-22T07:28:26;5.78;;;3.58;;
47760;SDS011;33524;55.434;38.520;2023-11-22T07:31:01;6.10;;;3.75;;
47760;SDS011;33524;55.434;38.520;2023-11-22T07:33:37;4.35;;;2.78;;
47760;SDS011;33524;55.434;38.520;2023-11-22T07:36:20;3.17;;;2.62;;
47760;SDS011;33524;55.434;38.520;2023-11-22T07:39:01;4.00;;;2.72;;
47760;SDS011;33524;55.434;38.520;2023-11-22T07:44:11;4.53;;;3.37;;
47760;SDS011;33524;55.434;38.520;2023-11-22T07:46:51;3.92;;;2.40;;
47760;SDS011;33524;55.434;38.520;2023-11-22T07:49:40;3.35;;;2.40;;
47760;SDS011;33524;55.434;38.520;2023-11-22T07:52:16;2.75;;;1.92;;
47760;SDS011;33524;55.434;38.520;2023-11-22T07:55:01;2.72;;;1.90;;
47760;SDS011;33524;55.434;38.520;2023-11-22T07:57:38;5.70;;;3.55;;
47760;SDS011;33524;55.434;38.520;2023-11-22T08:00:19;4.12;;;2.60;;
47760;SDS011;33524;55.434;38.520;2023-11-22T08:02:56;1.60;;;1.33;;
47760;SDS011;33524;55.434;38.520;2023-11-22T08:05:36;3.50;;;1.95;;
47760;SDS011;33524;55.434;38.520;2023-11-22T08:08:21;3.00;;;2.00;;
47760;SDS011;33524;55.434;38.520;2023-11-22T08:11:03;2.40;;;2.00;;
47760;SDS011;33524;55.434;38.520;2023-11-22T08:14:05;2.92;;;2.40;;
47760;SDS011;33524;55.434;38.520;2023-11-22T08:16:47;3.17;;;2.27;;
47760;SDS011;33524;55.434;38.520;2023-11-22T08:19:22;4.97;;;2.60;;
47760;SDS011;33524;55.434;38.520;2023-11-22T08:21:58;2.90;;;2.12;;
47760;SDS011;33524;55.434;38.520;2023-11-22T08:24:30;6.25;;;2.42;;
47760;SDS011;33524;55.434;38.520;2023-11-22T08:27:06;3.22;;;2.42;;
47760;SDS011;33524;55.434;38.520;2023-11-22T08:29:46;4.97;;;3.62;;
47760;SDS011;33524;55.434;38.520;2023-11-22T08:32:27;4.78;;;2.50;;
47760;SDS011;33524;55.434;38.520;2023-11-22T08:35:04;5.50;;;3.53;;
47760;SDS011;33524;55.434;38.520;2023-11-22T08:37:51;5.07;;;3.12;;
47760;SDS011;33524;55.434;38.520;2023-11-22T08:40:35;2.53;;;1.48;;
47760;SDS011;33524;55.434;38.520;2023-11-22T08:43:10;3.67;;;2.25;;
47760;SDS011;33524;55.434;38.520;2023-11-22T08:45:47;3.30;;;2.05;;
47760;SDS011;33524;55.434;38.520;2023-11-22T08:48:45;4.20;;;2.40;;
47760;SDS011;33524;55.434;38.520;2023-11-22T08:51:31;2.70;;;2.00;;
47760;SDS011;33524;55.434;38.520;2023-11-22T08:54:05;2.97;;;2.10;;
47760;SDS011;33524;55.434;38.520;2023-11-22T08:56:41;2.95;;;2.05;;
47760;SDS011;33524;55.434;38.520;2023-11-22T08:59:26;2.37;;;1.90;;
47760;SDS011;33524;55.434;38.520;2023-11-22T09:02:07;2.53;;;1.90;;
47760;SDS011;33524;55.434;38.520;2023-11-22T09:04:51;4.35;;;2.53;;
47760;SDS011;33524;55.434;38.520;2023-11-22T09:07:27;2.60;;;2.00;;
47760;SDS011;33524;55.434;38.520;2023-11-22T09:10:06;10.10;;;3.12;;
47760;SDS011;33524;55.434;38.520;2023-11-22T09:12:46;4.97;;;1.87;;
47760;SDS011;33524;55.434;38.520;2023-11-22T09:15:30;2.70;;;2.10;;
47760;SDS011;33524;55.434;38.520;2023-11-22T09:18:14;4.32;;;2.80;;
47760;SDS011;33524;55.434;38.520;2023-11-22T09:20:53;5.78;;;3.12;;
47760;SDS011;33524;55.434;38.520;2023-11-22T09:23:30;4.43;;;3.00;;
47760;SDS011;33524;55.434;38.520;2023-11-22T09:26:15;2.80;;;2.42;;
47760;SDS011;33524;55.434;38.520;2023-11-22T09:28:54;6.18;;;2.97;;
47760;SDS011;33524;55.434;38.520;2023-11-22T09:31:29;4.60;;;2.47;;
47760;SDS011;33524;55.434;38.520;2023-11-22T09:34:14;3.97;;;2.35;;
47760;SDS011;33524;55.434;38.520;2023-11-22T09:36:52;6.07;;;3.10;;
47760;SDS011;33524;55.434;38.520;2023-11-22T09:39:30;4.05;;;2.55;;
47760;SDS011;33524;55.434;38.520;2023-11-22T09:42:10;3.28;;;2.67;;
47760;SDS011;33524;55.434;38.520;2023-11-22T09:44:52;4.75;;;3.00;;
47760;SDS011;33524;55.434;38.520;2023-11-22T09:47:33;4.15;;;2.67;;
47760;SDS011;33524;55.434;38.520;2023-11-22T09:53:32;4.35;;;2.75;;
47760;SDS011;33524;55.434;38.520;2023-11-22T09:56:22;4.87;;;3.53;;
47760;SDS011;33524;55.434;38.520;2023-11-22T09:59:10;4.57;;;3.37;;
47760;SDS011;33524;55.434;38.520;2023-11-22T10:01:56;5.05;;;3.10;;
47760;SDS011;33524;55.434;38.520;2023-11-22T10:04:46;4.97;;;2.97;;
47760;SDS011;33524;55.434;38.520;2023-11-22T10:07:32;4.53;;;2.30;;
47760;SDS011;33524;55.434;38.520;2023-11-22T10:10:15;5.30;;;2.72;;
47760;SDS011;33524;55.434;38.520;2023-11-22T10:12:54;6.03;;;3.30;;
47760;SDS011;33524;55.434;38.520;2023-11-22T10:15:40;4.57;;;3.28;;
47760;SDS011;33524;55.434;38.520;2023-11-22T10:18:23;3.30;;;2.85;;
47760;SDS011;33524;55.434;38.520;2023-11-22T10:24:02;6.25;;;3.58;;
47760;SDS011;33524;55.434;38.520;2023-11-22T10:26:46;5.25;;;3.12;;
47760;SDS011;33524;55.434;38.520;2023-11-22T10:32:04;5.05;;;3.40;;
47760;SDS011;33524;55.434;38.520;2023-11-22T10:34:45;10.82;;;3.08;;
47760;SDS011;33524;55.434;38.520;2023-11-22T10:37:29;4.62;;;2.95;;
47760;SDS011;33524;55.434;38.520;2023-11-22T10:40:11;6.30;;;3.30;;
47760;SDS011;33524;55.434;38.520;2023-11-22T10:42:50;5.75;;;2.90;;
47760;SDS011;33524;55.434;38.520;2023-11-22T10:45:30;6.28;;;2.83;;
47760;SDS011;33524;55.434;38.520;2023-11-22T10:48:03;5.22;;;2.03;;
47760;SDS011;33524;55.434;38.520;2023-11-22T10:50:52;4.75;;;3.22;;
47760;SDS011;33524;55.434;38.520;2023-11-22T10:53:35;5.75;;;4.07;;
47760;SDS011;33524;55.434;38.520;2023-11-22T10:56:23;4.45;;;3.15;;
47760;SDS011;33524;55.434;38.520;2023-11-22T10:59:17;4.43;;;2.62;;
47760;SDS011;33524;55.434;38.520;2023-11-22T11:01:54;4.35;;;3.12;;
47760;SDS011;33524;55.434;38.520;2023-11-22T11:04:42;5.32;;;2.83;;
47760;SDS011;33524;55.434;38.520;2023-11-22T11:07:30;4.55;;;3.00;;
47760;SDS011;33524;55.434;38.520;2023-11-22T11:10:15;7.60;;;4.43;;
47760;SDS011;33524;55.434;38.520;2023-11-22T11:12:54;4.55;;;2.78;;
47760;SDS011;33524;55.434;38.520;2023-11-22T11:15:30;5.15;;;3.45;;
47760;SDS011;33524;55.434;38.520;2023-11-22T11:18:09;5.00;;;2.60;;
47760;SDS011;33524;55.434;38.520;2023-11-22T11:23:31;4.87;;;3.10;;
47760;SDS011;33524;55.434;38.520;2023-11-22T11:26:16;6.45;;;3.95;;
47760;SDS011;33524;55.434;38.520;2023-11-22T11:29:01;4.62;;;3.20;;
47760;SDS011;33524;55.434;38.520;2023-11-22T11:31:44;4.18;;;3.03;;
47760;SDS011;33524;55.434;38.520;2023-11-22T11:34:23;5.55;;;4.03;;
47760;SDS011;33524;55.434;38.520;2023-11-22T11:37:02;5.37;;;3.15;;
47760;SDS011;33524;55.434;38.520;2023-11-22T11:39:44;5.68;;;3.50;;
47760;SDS011;33524;55.434;38.520;2023-11-22T11:42:19;5.25;;;3.65;;
47760;SDS011;33524;55.434;38.520;2023-11-22T11:45:03;8.43;;;3.37;;
47760;SDS011;33524;55.434;38.520;2023-11-22T11:47:40;13.20;;;4.90;;
47760;SDS011;33524;55.434;38.520;2023-11-22T11:50:14;5.75;;;4.12;;
47760;SDS011;33524;55.434;38.520;2023-11-22T11:52:54;8.40;;;4.30;;
47760;SDS011;33524;55.434;38.520;2023-11-22T11:55:30;11.30;;;6.18;;
47760;SDS011;33524;55.434;38.520;2023-11-22T11:58:07;8.85;;;4.35;;
47760;SDS011;33524;55.434;38.520;2023-11-22T12:00:50;6.93;;;4.72;;
47760;SDS011;33524;55.434;38.520;2023-11-22T12:03:30;6.10;;;3.25;;
47760;SDS011;33524;55.434;38.520;2023-11-22T12:06:15;7.28;;;4.35;;
47760;SDS011;33524;55.434;38.520;2023-11-22T12:08:56;5.95;;;3.72;;
47760;SDS011;33524;55.434;38.520;2023-11-22T12:11:35;5.93;;;3.30;;
47760;SDS011;33524;55.434;38.520;2023-11-22T12:14:18;6.20;;;3.55;;
47760;SDS011;33524;55.434;38.520;2023-11-22T12:16:58;6.40;;;3.53;;
47760;SDS011;33524;55.434;38.520;2023-11-22T12:19:42;6.07;;;3.33;;
47760;SDS011;33524;55.434;38.520;2023-11-22T12:22:11;6.75;;;3.62;;
47760;SDS011;33524;55.434;38.520;2023-11-22T12:24:57;4.00;;;3.58;;
47760;SDS011;33524;55.434;38.520;2023-11-22T12:27:31;6.50;;;4.10;;
47760;SDS011;33524;55.434;38.520;2023-11-22T12:30:07;5.03;;;4.12;;
47760;SDS011;33524;55.434;38.520;2023-11-22T12:33:10;6.20;;;4.68;;
47760;SDS011;33524;55.434;38.520;2023-11-22T12:35:56;6.40;;;3.78;;
47760;SDS011;33524;55.434;38.520;2023-11-22T12:38:36;4.22;;;3.05;;
47760;SDS011;33524;55.434;38.520;2023-11-22T12:41:16;4.95;;;2.90;;
47760;SDS011;33524;55.434;38.520;2023-11-22T12:44:06;6.15;;;4.03;;
47760;SDS011;33524;55.434;38.520;2023-11-22T12:47:15;6.12;;;3.72;;
47760;SDS011;33524;55.434;38.520;2023-11-22T12:49:45;8.10;;;3.50;;
47760;SDS011;33524;55.434;38.520;2023-11-22T12:52:28;3.90;;;2.45;;
47760;SDS011;33524;55.434;38.520;2023-11-22T12:55:12;4.70;;;2.78;;
47760;SDS011;33524;55.434;38.520;2023-11-22T12:57:58;8.65;;;3.70;;
47760;SDS011;33524;55.434;38.520;2023-11-22T13:00:43;11.52;;;5.82;;
47760;SDS011;33524;55.434;38.520;2023-11-22T13:03:20;6.30;;;3.50;;
47760;SDS011;33524;55.434;38.520;2023-11-22T13:06:02;5.10;;;2.72;;
47760;SDS011;33524;55.434;38.520;2023-11-22T13:08:38;5.93;;;4.10;;
47760;SDS011;33524;55.434;38.520;2023-11-22T13:11:24;6.72;;;4.12;;
47760;SDS011;33524;55.434;38.520;2023-11-22T13:13:55;5.60;;;4.65;;
47760;SDS011;33524;55.434;38.520;2023-11-22T13:16:33;5.82;;;3.37;;
47760;SDS011;33524;55.434;38.520;2023-11-22T13:19:10;4.78;;;3.17;;
47760;SDS011;33524;55.434;38.520;2023-11-22T13:21:49;6.10;;;3.83;;
47760;SDS011;33524;55.434;38.520;2023-11-22T13:24:31;4.72;;;3.62;;
47760;SDS011;33524;55.434;38.520;2023-11-22T13:27:13;5.32;;;3.90;;
47760;SDS011;33524;55.434;38.520;2023-11-22T13:29:56;4.80;;;3.30;;
47760;SDS011;33524;55.434;38.520;2023-11-22T13:32:43;5.10;;;3.33;;
47760;SDS011;33524;55.434;38.520;2023-11-22T13:35:21;5.15;;;3.58;;
47760;SDS011;33524;55.434;38.520;2023-11-22T13:38:09;6.80;;;4.87;;
47760;SDS011;33524;55.434;38.520;2023-11-22T13:40:52;6.35;;;4.00;;
47760;SDS011;33524;55.434;38.520;2023-11-22T13:43:33;5.70;;;3.75;;
47760;SDS011;33524;55.434;38.520;2023-11-22T13:46:16;5.78;;;3.87;;
47760;SDS011;33524;55.434;38.520;2023-11-22T13:48:51;7.15;;;5.37;;
47760;SDS011;33524;55.434;38.520;2023-11-22T13:51:23;5.82;;;3.75;;
47760;SDS011;33524;55.434;38.520;2023-11-22T13:53:58;4.03;;;2.70;;
47760;SDS011;33524;55.434;38.520;2023-11-22T13:56:31;4.55;;;3.15;;
47760;SDS011;33524;55.434;38.520;2023-11-22T13:59:13;3.40;;;2.30;;
47760;SDS011;33524;55.434;38.520;2023-11-22T14:01:49;5.72;;;3.90;;
47760;SDS011;33524;55.434;38.520;2023-11-22T14:04:27;6.53;;;4.18;;
47760;SDS011;33524;55.434;38.520;2023-11-22T14:07:09;4.97;;;3.47;;
47760;SDS011;33524;55.434;38.520;2023-11-22T14:09:58;4.00;;;2.80;;
47760;SDS011;33524;55.434;38.520;2023-11-22T14:12:37;6.03;;;3.35;;
47760;SDS011;33524;55.434;38.520;2023-11-22T14:15:17;4.72;;;3.08;;
47760;SDS011;33524;55.434;38.520;2023-11-22T14:17:59;5.00;;;2.95;;
47760;SDS011;33524;55.434;38.520;2023-11-22T14:20:33;7.70;;;5.00;;
47760;SDS011;33524;55.434;38.520;2023-11-22T14:23:19;4.70;;;3.20;;
47760;SDS011;33524;55.434;38.520;2023-11-22T14:26:06;5.55;;;3.47;;
47760;SDS011;33524;55.434;38.520;2023-11-22T14:28:44;4.32;;;3.30;;
47760;SDS011;33524;55.434;38.520;2023-11-22T14:31:25;5.40;;;3.17;;
47760;SDS011;33524;55.434;38.520;2023-11-22T14:34:05;6.47;;;3.95;;
47760;SDS011;33524;55.434;38.520;2023-11-22T14:36:46;7.12;;;4.97;;
47760;SDS011;33524;55.434;38.520;2023-11-22T14:39:25;5.15;;;3.47;;
47760;SDS011;33524;55.434;38.520;2023-11-22T14:42:05;5.40;;;3.10;;
47760;SDS011;33524;55.434;38.520;2023-11-22T14:44:52;4.90;;;3.85;;
47760;SDS011;33524;55.434;38.520;2023-11-22T14:47:31;5.37;;;3.00;;
47760;SDS011;33524;55.434;38.520;2023-11-22T14:50:20;3.90;;;3.08;;
47760;SDS011;33524;55.434;38.520;2023-11-22T14:53:06;5.70;;;3.78;;
47760;SDS011;33524;55.434;38.520;2023-11-22T14:55:48;3.97;;;3.40;;
47760;SDS011;33524;55.434;38.520;2023-11-22T14:58:28;4.32;;;2.83;;
47760;SDS011;33524;55.434;38.520;2023-11-22T15:01:16;4.47;;;2.97;;
47760;SDS011;33524;55.434;38.520;2023-11-22T15:03:58;8.02;;;4.45;;
47760;SDS011;33524;55.434;38.520;2023-11-22T15:06:40;6.53;;;4.55;;
47760;SDS011;33524;55.434;38.520;2023-11-22T15:09:25;5.32;;;4.30;;
47760;SDS011;33524;55.434;38.520;2023-11-22T15:12:10;7.00;;;4.00;;
47760;SDS011;33524;55.434;38.520;2023-11-22T15:14:48;7.87;;;6.32;;
47760;SDS011;33524;55.434;38.520;2023-11-22T15:17:25;6.82;;;5.35;;
47760;SDS011;33524;55.434;38.520;2023-11-22T15:20:11;5.30;;;3.55;;
47760;SDS011;33524;55.434;38.520;2023-11-22T15:22:49;8.32;;;6.10;;
47760;SDS011;33524;55.434;38.520;2023-11-22T15:25:39;5.82;;;4.25;;
47760;SDS011;33524;55.434;38.520;2023-11-22T15:28:18;8.82;;;4.07;;
47760;SDS011;33524;55.434;38.520;2023-11-22T15:30:59;5.28;;;3.53;;
47760;SDS011;33524;55.434;38.520;2023-11-22T15:33:40;4.93;;;3.10;;
47760;SDS011;33524;55.434;38.520;2023-11-22T15:36:22;7.43;;;4.32;;
47760;SDS011;33524;55.434;38.520;2023-11-22T15:38:58;6.82;;;4.00;;
47760;SDS011;33524;55.434;38.520;2023-11-22T15:41:43;6.93;;;4.78;;